Time;durP1;ratioP1;P1;durP2;ratioP2;P2;SDS_P1;SDS_P2;PMS_P1;PMS_P2;Temp;Humidity;BMP_temperature;BMP_pressure;BME280_temperature;BME280_humidity;BME280_pressure;Samples;Min_cycle;Max_cycle;Signal;HPM_P1;HPM_P2
2023/07/27 00:00:51;;;;;;;;;;;;;;;29.03;39.63;98407.84;5033457;28;20374;-78
2023/07/27 00:03:17;;;;;;;;;;;;;;;28.93;39.78;98407.38;5033875;28;19908;-78
2023/07/27 00:05:42;;;;;;;;;;;;;;;28.85;39.44;98403.56;5055147;28;19912;-78
2023/07/27 00:08:07;;;;;;;;;;;;;;;28.83;39.57;98413.94;5055241;28;19909;-78
2023/07/27 00:10:32;;;;;;;;;;;;;;;28.78;40.15;98408.69;5055057;28;20313;-78
2023/07/27 00:12:58;;;;;;;;;;;;;;;28.77;39.56;98418.75;5062161;28;19958;-78
2023/07/27 00:15:23;;;;;;;;;;;;;;;28.73;40.45;98427.88;5054897;28;19909;-78
2023/07/27 00:17:48;;;;;;;;;;;;;;;28.70;39.94;98437.47;5054914;28;19916;-80
2023/07/27 00:20:14;;;;;;;;;;;;;;;28.70;40.52;98431.22;5054571;28;19915;-78
2023/07/27 00:22:39;;;;;;;;;;;;;;;28.65;40.26;98431.41;5054616;28;19912;-77
2023/07/27 00:25:05;;;;;;;;;;;;;;;28.59;40.08;98430.78;5036513;28;19951;-79
2023/07/27 00:27:30;;;;;;;;;;;;;;;28.62;40.08;98434.78;5054268;28;20356;-78
2023/07/27 00:29:55;;;;;;;;;;;;;;;28.68;40.26;98428.03;5054060;28;19909;-78
2023/07/27 00:32:20;;;;;;;;;;;;;;;28.67;39.89;98419.09;5036388;28;19943;-77
2023/07/27 00:34:46;;;;;;;;;;;;;;;28.61;41.48;98423.09;5036280;28;19916;-79
2023/07/27 00:37:12;;;;;;;;;;;;;;;28.59;40.79;98438.13;5054074;28;20027;-77
2023/07/27 00:39:37;;;;;;;;;;;;;;;28.56;41.32;98430.63;5036128;28;19966;-77
2023/07/27 00:42:03;;;;;;;;;;;;;;;28.52;40.92;98437.81;5054040;28;19909;-78
2023/07/27 00:44:28;;;;;;;;;;;;;;;28.46;41.46;98443.44;5054002;28;19908;-77
2023/07/27 00:46:53;;;;;;;;;;;;;;;28.45;41.03;98443.75;5053969;28;19909;-78
2023/07/27 00:49:19;;;;;;;;;;;;;;;28.36;40.80;98435.63;5053818;28;20063;-79
2023/07/27 00:51:45;;;;;;;;;;;;;;;28.31;41.38;98438.50;5054019;28;19956;-76
2023/07/27 00:54:10;;;;;;;;;;;;;;;28.21;40.85;98425.19;5035916;28;19919;-79
2023/07/27 00:56:37;;;;;;;;;;;;;;;28.17;41.04;98418.81;5054390;28;19912;-79
2023/07/27 00:59:03;;;;;;;;;;;;;;;28.21;40.45;98427.91;5053778;28;19966;-78
2023/07/27 01:01:28;;;;;;;;;;;;;;;28.15;41.65;98438.13;5053915;28;19913;-79
2023/07/27 01:03:54;;;;;;;;;;;;;;;27.95;41.68;98433.34;5053711;28;20302;-77
2023/07/27 01:06:19;;;;;;;;;;;;;;;28.01;40.92;98434.78;5053700;28;20381;-78
2023/07/27 01:08:45;;;;;;;;;;;;;;;28.01;40.51;98434.78;5053629;28;20004;-78
2023/07/27 01:11:30;;;;;;;;;;;;;;;27.98;40.75;98435.44;5035715;28;19909;-79
2023/07/27 01:14:25;;;;;;;;;;;;;;;27.94;41.57;98439.09;5053262;28;19913;-77
2023/07/27 01:17:09;;;;;;;;;;;;;;;27.94;40.95;98439.09;5021826;28;19915;-77
2023/07/27 01:19:34;;;;;;;;;;;;;;;27.85;41.57;98431.75;5053440;28;19971;-78
2023/07/27 01:22:14;;;;;;;;;;;;;;;27.74;41.66;98435.88;5053232;28;19908;-79
2023/07/27 01:24:54;;;;;;;;;;;;;;;27.77;41.55;98439.88;5053165;28;20453;-77
2023/07/27 01:27:30;;;;;;;;;;;;;;;27.76;42.02;98432.88;5053198;28;19991;-79
2023/07/27 01:30:15;;;;;;;;;;;;;;;27.71;41.26;98439.25;5053018;28;19913;-76
2023/07/27 01:32:40;;;;;;;;;;;;;;;27.65;41.73;98437.78;5052948;28;19916;-78
2023/07/27 01:35:08;;;;;;;;;;;;;;;27.67;41.08;98438.28;5052991;28;20025;-78
2023/07/27 01:37:35;;;;;;;;;;;;;;;27.61;41.34;98442.25;5052931;28;19908;-78
2023/07/27 01:40:02;;;;;;;;;;;;;;;27.59;40.80;98443.66;5053060;28;19913;-78
2023/07/27 01:42:28;;;;;;;;;;;;;;;27.52;40.90;98444.13;5052596;28;19968;-78
2023/07/27 01:44:54;;;;;;;;;;;;;;;27.53;40.97;98443.81;5034693;28;19956;-77
2023/07/27 01:47:21;;;;;;;;;;;;;;;27.58;40.71;98444.78;5052716;28;19959;-78
2023/07/27 01:49:48;;;;;;;;;;;;;;;27.52;40.84;98450.34;5034793;28;20340;-78
2023/07/27 01:52:15;;;;;;;;;;;;;;;27.45;40.75;98449.97;5052638;28;19909;-78
2023/07/27 01:54:40;;;;;;;;;;;;;;;27.48;40.97;98453.97;5034531;28;20446;-78
2023/07/27 01:57:06;;;;;;;;;;;;;;;27.48;40.85;98452.06;5034552;28;19956;-78
2023/07/27 01:59:32;;;;;;;;;;;;;;;27.47;40.50;98453.16;5034343;28;20318;-78
2023/07/27 02:01:58;;;;;;;;;;;;;;;27.44;40.81;98461.13;5052551;28;19962;-78
2023/07/27 02:04:24;;;;;;;;;;;;;;;27.33;41.14;98465.25;5052600;28;19905;-79
2023/07/27 02:06:49;;;;;;;;;;;;;;;27.22;41.71;98467.44;5052691;28;19922;-79
2023/07/27 02:09:14;;;;;;;;;;;;;;;27.29;40.93;98483.25;5034592;28;20297;-76
2023/07/27 02:11:42;;;;;;;;;;;;;;;27.22;41.51;98470.16;5052325;28;19993;-79
2023/07/27 02:14:10;;;;;;;;;;;;;;;27.23;41.47;98469.84;5034246;28;20408;-79
2023/07/27 02:16:56;;;;;;;;;;;;;;;27.18;41.23;98469.97;5052324;28;19916;-78
2023/07/27 02:19:26;;;;;;;;;;;;;;;27.19;41.53;98471.59;5034155;28;19951;-78
2023/07/27 02:21:53;;;;;;;;;;;;;;;27.07;42.11;98479.50;5052151;28;19909;-78
2023/07/27 02:24:18;;;;;;;;;;;;;;;27.12;41.71;98482.06;5051981;28;20377;-78
2023/07/27 02:26:44;;;;;;;;;;;;;;;27.15;41.49;98483.34;5051701;28;19908;-77
2023/07/27 02:29:09;;;;;;;;;;;;;;;27.18;41.67;98485.44;5051925;28;19931;-78
2023/07/27 02:31:34;;;;;;;;;;;;;;;27.15;41.35;98489.56;5051964;28;20479;-77
2023/07/27 02:33:59;;;;;;;;;;;;;;;27.20;41.70;98496.78;5051717;28;19917;-77
2023/07/27 02:36:25;;;;;;;;;;;;;;;27.23;41.50;98490.72;5051872;28;20369;-78
2023/07/27 02:38:50;;;;;;;;;;;;;;;27.27;41.11;98504.44;5051960;28;19908;-79
2023/07/27 02:41:15;;;;;;;;;;;;;;;27.27;41.33;98507.16;5051918;28;19909;-79
2023/07/27 02:43:40;;;;;;;;;;;;;;;27.30;40.78;98507.34;5051726;28;19909;-78
2023/07/27 02:46:08;;;;;;;;;;;;;;;27.30;41.22;98511.97;5051882;28;19908;-78
2023/07/27 02:48:33;;;;;;;;;;;;;;;27.28;40.99;98506.84;5051649;28;19909;-78
2023/07/27 02:50:58;;;;;;;;;;;;;;;27.23;41.31;98507.78;5051669;28;19915;-78
2023/07/27 02:53:23;;;;;;;;;;;;;;;27.19;41.61;98506.00;5051601;28;19916;-77
2023/07/27 02:55:58;;;;;;;;;;;;;;;27.13;41.53;98518.91;5051602;28;19909;-78
2023/07/27 02:58:24;;;;;;;;;;;;;;;27.12;41.16;98509.16;5051544;28;20298;-78
2023/07/27 03:00:50;;;;;;;;;;;;;;;27.03;41.50;98516.47;5033776;28;19931;-78
2023/07/27 03:03:15;;;;;;;;;;;;;;;27.09;41.42;98527.97;5051540;28;19908;-78
2023/07/27 03:05:41;;;;;;;;;;;;;;;27.04;41.09;98528.09;5051797;28;19916;-78
2023/07/27 03:08:06;;;;;;;;;;;;;;;27.00;41.72;98514.38;5051580;28;19965;-78
2023/07/27 03:10:33;;;;;;;;;;;;;;;26.92;42.05;98528.63;5051488;28;19908;-76
2023/07/27 03:12:59;;;;;;;;;;;;;;;26.92;41.67;98529.44;5033544;28;19940;-77
2023/07/27 03:15:24;;;;;;;;;;;;;;;26.84;41.59;98532.91;5051364;28;20455;-78
2023/07/27 03:17:49;;;;;;;;;;;;;;;26.79;42.05;98530.31;5056473;28;19909;-79
2023/07/27 03:20:14;;;;;;;;;;;;;;;26.89;41.70;98534.66;5069216;28;19913;-78
2023/07/27 03:22:40;;;;;;;;;;;;;;;26.87;41.88;98555.84;5036900;28;19913;-79
2023/07/27 03:25:05;;;;;;;;;;;;;;;26.79;41.90;98546.56;5052019;28;20308;-77
2023/07/27 03:27:30;;;;;;;;;;;;;;;26.86;41.96;98552.34;5051912;28;19909;-77
2023/07/27 03:29:56;;;;;;;;;;;;;;;26.95;41.72;98560.53;5051470;28;20317;-79
2023/07/27 03:32:21;;;;;;;;;;;;;;;26.84;41.35;98561.88;5051431;28;19905;-79
2023/07/27 03:34:46;;;;;;;;;;;;;;;26.80;41.82;98553.56;5051389;28;19924;-77
2023/07/27 03:37:11;;;;;;;;;;;;;;;26.86;41.49;98562.38;5051138;28;19944;-79
2023/07/27 03:39:36;;;;;;;;;;;;;;;26.91;41.25;98570.38;5053367;28;19916;-78
2023/07/27 03:42:02;;;;;;;;;;;;;;;26.84;41.38;98573.53;5055066;28;20370;-78
2023/07/27 03:44:27;;;;;;;;;;;;;;;26.79;41.76;98581.78;5055303;28;19995;-78
2023/07/27 03:46:53;;;;;;;;;;;;;;;26.76;41.45;98578.88;5055077;28;20376;-79
2023/07/27 03:49:18;;;;;;;;;;;;;;;26.78;41.92;98571.25;5054886;28;19992;-79
2023/07/27 03:51:43;;;;;;;;;;;;;;;26.68;41.79;98561.44;5054969;28;19943;-78
2023/07/27 03:54:08;;;;;;;;;;;;;;;26.60;41.81;98573.78;5054756;28;20360;-79
2023/07/27 03:56:34;;;;;;;;;;;;;;;26.59;41.96;98591.16;5055004;28;19908;-78
2023/07/27 03:58:59;;;;;;;;;;;;;;;26.51;42.33;98591.06;5054662;28;19917;-79
2023/07/27 04:01:24;;;;;;;;;;;;;;;26.55;42.08;98589.34;5054876;28;20364;-78
2023/07/27 04:03:49;;;;;;;;;;;;;;;26.55;42.59;98595.56;5054540;28;19909;-79
2023/07/27 04:06:16;;;;;;;;;;;;;;;26.44;42.96;98590.69;5054844;28;19920;-79
2023/07/27 04:08:41;;;;;;;;;;;;;;;26.39;42.52;98602.44;5054522;28;20310;-77
2023/07/27 04:11:06;;;;;;;;;;;;;;;26.35;43.44;98596.03;5054651;28;19909;-79
2023/07/27 04:13:31;;;;;;;;;;;;;;;26.36;43.40;98621.19;5054440;28;19960;-77
2023/07/27 04:15:57;;;;;;;;;;;;;;;26.31;42.82;98618.56;5054360;28;19908;-78
2023/07/27 04:18:22;;;;;;;;;;;;;;;26.24;43.66;98610.84;5054236;28;19992;-78
2023/07/27 04:20:47;;;;;;;;;;;;;;;26.17;43.73;98605.84;5054220;28;20301;-79
2023/07/27 04:23:13;;;;;;;;;;;;;;;26.15;44.37;98620.78;5054173;28;19909;-78
2023/07/27 04:25:38;;;;;;;;;;;;;;;26.06;43.98;98633.41;5054101;28;19962;-78
2023/07/27 04:28:04;;;;;;;;;;;;;;;26.01;44.37;98628.91;5054047;28;19904;-78
2023/07/27 04:30:29;;;;;;;;;;;;;;;26.13;43.60;98634.63;5054823;28;20050;-79
2023/07/27 04:32:54;;;;;;;;;;;;;;;26.07;43.90;98610.69;5054026;28;20407;-77
2023/07/27 04:35:20;;;;;;;;;;;;;;;26.03;43.86;98625.91;5054328;28;20349;-79
2023/07/27 04:37:45;;;;;;;;;;;;;;;26.03;44.03;98628.63;5054071;28;19909;-77
2023/07/27 04:40:11;;;;;;;;;;;;;;;26.03;43.42;98628.63;5054220;28;19917;-77
2023/07/27 04:42:36;;;;;;;;;;;;;;;26.07;43.43;98645.84;5054328;28;19980;-78
2023/07/27 04:45:01;;;;;;;;;;;;;;;25.98;44.14;98662.75;5054046;28;19908;-78
2023/07/27 04:47:27;;;;;;;;;;;;;;;26.04;43.55;98649.16;5054106;28;19956;-78
2023/07/27 04:49:52;;;;;;;;;;;;;;;26.02;43.47;98651.34;5053554;28;19908;-78
2023/07/27 04:52:17;;;;;;;;;;;;;;;26.04;42.95;98639.13;5036220;28;20015;-78
2023/07/27 04:54:42;;;;;;;;;;;;;;;25.96;43.14;98648.72;5053838;28;19978;-78
2023/07/27 04:57:08;;;;;;;;;;;;;;;25.79;43.60;98645.00;5053878;28;19909;-78
2023/07/27 04:59:33;;;;;;;;;;;;;;;25.85;43.35;98646.50;5053686;28;19921;-78
2023/07/27 05:01:58;;;;;;;;;;;;;;;25.91;43.17;98642.63;5053781;28;19916;-78
2023/07/27 05:04:23;;;;;;;;;;;;;;;25.95;42.99;98644.41;5053528;28;19959;-77
2023/07/27 05:06:49;;;;;;;;;;;;;;;25.94;42.67;98656.34;5053593;28;19913;-77
2023/07/27 05:09:14;;;;;;;;;;;;;;;25.92;42.64;98674.78;5053382;28;20374;-78
2023/07/27 05:11:39;;;;;;;;;;;;;;;25.84;42.34;98659.22;5053313;28;19908;-78
2023/07/27 05:14:05;;;;;;;;;;;;;;;25.80;42.06;98654.72;5053316;28;19920;-78
2023/07/27 05:16:30;;;;;;;;;;;;;;;25.81;42.07;98656.31;5053561;28;19909;-79
2023/07/27 05:18:57;;;;;;;;;;;;;;;25.78;41.63;98657.72;5053345;28;20433;-78
2023/07/27 05:21:23;;;;;;;;;;;;;;;25.74;41.68;98662.13;5035336;28;19909;-79
2023/07/27 05:23:48;;;;;;;;;;;;;;;25.74;41.53;98691.06;5053271;28;19909;-79
2023/07/27 05:26:13;;;;;;;;;;;;;;;25.26;42.32;98689.38;5053036;28;19909;-76
2023/07/27 05:28:38;;;;;;;;;;;;;;;25.42;42.03;98678.34;5053077;28;20362;-78
2023/07/27 05:31:04;;;;;;;;;;;;;;;25.41;42.09;98671.34;5052987;28;19916;-77
2023/07/27 05:33:29;;;;;;;;;;;;;;;25.55;41.85;98674.88;5052757;28;19917;-78
2023/07/27 05:35:54;;;;;;;;;;;;;;;25.52;42.00;98692.50;5052823;28;20377;-78
2023/07/27 05:38:19;;;;;;;;;;;;;;;25.47;41.85;98708.81;5052869;28;19909;-78
2023/07/27 05:40:44;;;;;;;;;;;;;;;25.51;41.74;98720.63;5052858;28;19909;-78
2023/07/27 05:43:10;;;;;;;;;;;;;;;25.47;41.80;98738.53;5052929;28;20349;-77
2023/07/27 05:45:38;;;;;;;;;;;;;;;25.34;42.01;98731.19;5052822;28;19959;-77
2023/07/27 05:48:04;;;;;;;;;;;;;;;25.19;42.53;98720.56;5053228;28;19908;-78
2023/07/27 05:50:30;;;;;;;;;;;;;;;25.16;42.63;98715.75;5035057;28;19929;-79
2023/07/27 05:52:55;;;;;;;;;;;;;;;25.17;42.54;98711.97;5034824;28;20362;-78
2023/07/27 05:55:20;;;;;;;;;;;;;;;25.20;42.22;98704.06;5034645;28;19912;-78
2023/07/27 05:57:45;;;;;;;;;;;;;;;25.25;42.33;98697.78;5052535;28;20097;-76
2023/07/27 06:00:11;;;;;;;;;;;;;;;25.29;42.17;98696.94;5053567;28;19913;-76
2023/07/27 06:02:36;;;;;;;;;;;;;;;25.18;42.46;98698.16;5052978;28;20396;-77
2023/07/27 06:05:01;;;;;;;;;;;;;;;25.09;42.70;98712.63;5047288;28;19908;-80
2023/07/27 06:07:27;;;;;;;;;;;;;;;24.82;42.95;98710.56;5044108;28;19908;-78
2023/07/27 06:09:52;;;;;;;;;;;;;;;24.93;43.18;98723.63;5034608;28;19908;-77
2023/07/27 06:12:18;;;;;;;;;;;;;;;25.01;42.33;98725.69;5052003;28;19909;-78
2023/07/27 06:14:44;;;;;;;;;;;;;;;24.97;43.10;98729.25;5051871;28;19929;-78
2023/07/27 06:17:09;;;;;;;;;;;;;;;25.10;42.45;98733.94;5051790;28;20058;-77
2023/07/27 06:19:35;;;;;;;;;;;;;;;24.93;43.03;98734.44;5052141;28;19920;-78
2023/07/27 06:22:00;;;;;;;;;;;;;;;25.08;42.49;98730.72;5052227;28;19980;-78
2023/07/27 06:24:25;;;;;;;;;;;;;;;25.12;42.29;98726.34;5051930;28;19908;-78
2023/07/27 06:26:50;;;;;;;;;;;;;;;25.13;41.95;98724.44;5052471;28;19927;-78
2023/07/27 06:29:16;;;;;;;;;;;;;;;25.14;41.80;98734.97;5063699;28;19916;-79
2023/07/27 06:31:41;;;;;;;;;;;;;;;25.22;41.80;98736.19;5041091;28;19930;-78
2023/07/27 06:34:06;;;;;;;;;;;;;;;25.21;41.63;98735.41;5034052;28;19963;-78
2023/07/27 06:36:31;;;;;;;;;;;;;;;25.21;41.29;98732.69;5051909;28;19915;-77
2023/07/27 06:38:57;;;;;;;;;;;;;;;25.20;41.32;98722.19;5017734;28;19966;-77
2023/07/27 06:41:25;;;;;;;;;;;;;;;25.22;41.25;98733.50;5051484;28;19955;-76
2023/07/27 06:43:50;;;;;;;;;;;;;;;25.30;40.97;98740.97;5051644;28;20070;-79
2023/07/27 06:46:16;;;;;;;;;;;;;;;25.32;40.71;98725.25;5047935;28;20441;-77
2023/07/27 06:48:41;;;;;;;;;;;;;;;25.11;41.39;98708.53;5033379;28;19912;-78
2023/07/27 06:51:07;;;;;;;;;;;;;;;25.09;41.31;98699.13;5051151;28;20305;-79
2023/07/27 06:53:32;;;;;;;;;;;;;;;25.02;41.67;98713.00;5050502;28;19925;-78
2023/07/27 06:55:57;;;;;;;;;;;;;;;24.84;42.70;98729.97;5047410;28;19931;-78
2023/07/27 06:58:22;;;;;;;;;;;;;;;24.79;42.52;98730.84;5050865;28;19917;-78
2023/07/27 07:00:48;;;;;;;;;;;;;;;24.77;43.17;98729.53;5051624;28;19959;-79
2023/07/27 07:03:13;;;;;;;;;;;;;;;24.81;42.69;98727.84;5051697;28;20391;-79
2023/07/27 07:05:38;;;;;;;;;;;;;;;24.77;43.79;98724.94;5051730;28;19908;-78
2023/07/27 07:08:04;;;;;;;;;;;;;;;24.69;43.72;98729.09;5033706;28;19955;-78
2023/07/27 07:10:29;;;;;;;;;;;;;;;24.68;43.99;98743.66;5051901;28;19967;-77
2023/07/27 07:12:54;;;;;;;;;;;;;;;24.69;44.53;98734.47;5052591;28;20401;-77
2023/07/27 07:15:19;;;;;;;;;;;;;;;24.70;43.82;98740.69;5036970;28;19917;-76
2023/07/27 07:17:45;;;;;;;;;;;;;;;24.78;43.69;98755.44;5054906;28;20356;-77
2023/07/27 07:20:10;;;;;;;;;;;;;;;24.70;44.12;98752.28;5052922;28;19913;-79
2023/07/27 07:22:36;;;;;;;;;;;;;;;24.86;43.81;98765.59;5052408;28;19912;-77
2023/07/27 07:25:01;;;;;;;;;;;;;;;24.98;43.78;98787.59;5053029;28;19912;-78
2023/07/27 07:27:26;;;;;;;;;;;;;;;24.99;43.39;98786.50;5032962;28;19974;-78
2023/07/27 07:29:52;;;;;;;;;;;;;;;24.93;43.26;98793.03;5052698;28;19966;-78
2023/07/27 07:32:17;;;;;;;;;;;;;;;24.97;43.67;98800.28;5050814;28;20309;-76
2023/07/27 07:34:42;;;;;;;;;;;;;;;25.00;44.54;98807.00;5052551;28;20063;-78
2023/07/27 07:37:08;;;;;;;;;;;;;;;25.03;43.36;98812.63;5054603;28;20378;-77
2023/07/27 07:39:33;;;;;;;;;;;;;;;25.03;43.53;98809.94;5053965;28;19971;-78
2023/07/27 07:42:00;;;;;;;;;;;;;;;25.08;44.28;98792.88;5036765;28;19912;-75
2023/07/27 07:44:25;;;;;;;;;;;;;;;25.04;44.15;98778.34;5043446;28;19976;-77
2023/07/27 07:46:50;;;;;;;;;;;;;;;25.02;44.15;98762.41;5051872;28;19913;-78
2023/07/27 07:49:15;;;;;;;;;;;;;;;25.08;43.96;98746.13;5049637;28;20390;-76
2023/07/27 07:51:41;;;;;;;;;;;;;;;25.13;44.60;98746.06;5043454;28;19959;-77
2023/07/27 07:54:08;;;;;;;;;;;;;;;25.20;44.21;98751.91;5046394;28;19924;-78
2023/07/27 07:56:34;;;;;;;;;;;;;;;25.20;44.38;98749.19;5053913;28;19966;-78
2023/07/27 07:59:03;;;;;;;;;;;;;;;25.26;45.08;98766.94;5054646;28;19955;-78
2023/07/27 08:01:28;;;;;;;;;;;;;;;25.30;44.24;98757.19;5054505;28;20309;-76
2023/07/27 08:03:53;;;;;;;;;;;;;;;25.30;43.78;98749.88;5054760;28;19916;-77
2023/07/27 08:06:19;;;;;;;;;;;;;;;25.32;43.37;98752.28;5052623;28;19913;-77
2023/07/27 08:08:44;;;;;;;;;;;;;;;25.39;42.62;98763.53;5053024;28;19912;-77
2023/07/27 08:11:10;;;;;;;;;;;;;;;25.50;42.41;98783.09;5052458;28;19919;-78
2023/07/27 08:13:35;;;;;;;;;;;;;;;25.59;41.28;98763.19;5054311;28;19917;-78
2023/07/27 08:16:03;;;;;;;;;;;;;;;25.67;40.59;98764.47;5049995;28;20390;-78
2023/07/27 08:18:28;;;;;;;;;;;;;;;25.71;40.30;98751.94;5039949;28;19912;-78
2023/07/27 08:20:58;;;;;;;;;;;;;;;25.73;39.49;98752.47;5036364;28;19915;-75
2023/07/27 08:23:23;;;;;;;;;;;;;;;25.75;39.69;98754.88;5028557;28;19941;-76
2023/07/27 08:25:48;;;;;;;;;;;;;;;25.73;39.91;98757.88;5035003;28;19960;-79
2023/07/27 08:28:14;;;;;;;;;;;;;;;25.64;39.50;98770.44;5035145;28;19956;-76
2023/07/27 08:30:41;;;;;;;;;;;;;;;25.62;38.19;98754.50;5036149;28;19912;-78
2023/07/27 08:33:06;;;;;;;;;;;;;;;25.70;38.75;98744.13;5035915;28;19913;-77
2023/07/27 08:35:31;;;;;;;;;;;;;;;25.66;37.99;98746.63;5034968;28;19966;-78
2023/07/27 08:37:57;;;;;;;;;;;;;;;25.67;38.56;98737.41;5052957;28;19991;-77
2023/07/27 08:40:22;;;;;;;;;;;;;;;25.63;38.25;98739.09;5035836;28;19908;-76
2023/07/27 08:42:48;;;;;;;;;;;;;;;25.61;37.99;98754.78;5052503;28;19985;-78
2023/07/27 08:45:14;;;;;;;;;;;;;;;25.63;37.71;98766.91;5053384;28;19913;-75
2023/07/27 08:47:40;;;;;;;;;;;;;;;25.49;37.63;98779.59;5053522;28;19912;-76
2023/07/27 08:50:06;;;;;;;;;;;;;;;25.46;37.26;98796.38;5053381;28;19912;-75
2023/07/27 08:52:31;;;;;;;;;;;;;;;25.45;36.83;98813.72;5052209;28;19973;-76
2023/07/27 08:54:57;;;;;;;;;;;;;;;25.52;37.06;98814.13;5052684;28;20320;-78
2023/07/27 08:57:22;;;;;;;;;;;;;;;25.55;35.51;98800.03;5043558;28;19923;-76
2023/07/27 08:59:47;;;;;;;;;;;;;;;25.59;36.61;98805.66;5053384;28;20006;-76
2023/07/27 09:02:13;;;;;;;;;;;;;;;25.63;36.60;98817.50;5033311;28;20040;-76
2023/07/27 09:04:38;;;;;;;;;;;;;;;25.68;35.08;98817.44;5034676;28;19919;-78
2023/07/27 09:07:10;;;;;;;;;;;;;;;25.68;35.77;98819.34;5053120;28;19908;-77
2023/07/27 09:09:35;;;;;;;;;;;;;;;25.79;34.89;98828.88;5050803;28;20385;-77
2023/07/27 09:12:03;;;;;;;;;;;;;;;25.73;35.28;98833.59;5049614;28;19956;-76
2023/07/27 09:14:33;;;;;;;;;;;;;;;25.79;35.66;98812.66;5053887;28;19921;-77
2023/07/27 09:16:59;;;;;;;;;;;;;;;25.72;35.65;98812.25;5034778;28;19912;-77
2023/07/27 09:19:25;;;;;;;;;;;;;;;25.74;34.29;98808.16;5037479;28;19987;-77
2023/07/27 09:21:52;;;;;;;;;;;;;;;25.73;34.36;98809.25;5037687;28;19909;-78
2023/07/27 09:24:18;;;;;;;;;;;;;;;25.79;34.72;98808.06;5043466;28;19912;-78
2023/07/27 09:26:47;;;;;;;;;;;;;;;25.74;33.83;98808.16;5043467;28;19920;-77
2023/07/27 09:29:13;;;;;;;;;;;;;;;25.73;33.74;98828.16;5038029;28;19991;-78
2023/07/27 09:32:05;;;;;;;;;;;;;;;25.75;33.60;98834.09;5051513;28;20008;-78
2023/07/27 09:34:32;;;;;;;;;;;;;;;25.74;33.30;98846.00;5050378;28;19913;-77
2023/07/27 09:37:04;;;;;;;;;;;;;;;25.87;34.20;98845.25;5051131;28;19999;-77
2023/07/27 09:39:35;;;;;;;;;;;;;;;25.98;33.97;98852.09;5037219;28;19935;-78
2023/07/27 09:42:00;;;;;;;;;;;;;;;25.95;32.76;98846.47;5052796;28;19913;-78
2023/07/27 09:44:26;;;;;;;;;;;;;;;25.87;33.05;98842.53;5044901;28;20413;-78
2023/07/27 09:46:51;;;;;;;;;;;;;;;25.84;32.64;98848.53;5052109;28;20335;-78
2023/07/27 09:49:17;;;;;;;;;;;;;;;25.76;32.77;98860.03;5051351;28;19923;-77
2023/07/27 09:51:42;;;;;;;;;;;;;;;25.69;31.92;98853.38;5052906;28;19995;-76
2023/07/27 09:54:08;;;;;;;;;;;;;;;25.65;31.40;98845.03;5051162;28;19939;-77
2023/07/27 09:56:33;;;;;;;;;;;;;;;25.62;31.65;98851.81;5052369;28;19908;-78
2023/07/27 09:58:59;;;;;;;;;;;;;;;25.53;31.09;98856.28;5051243;28;20008;-78
2023/07/27 10:01:27;;;;;;;;;;;;;;;25.53;31.85;98855.50;5052538;28;19909;-78
2023/07/27 10:03:57;;;;;;;;;;;;;;;25.43;31.98;98856.44;5051119;28;19909;-78
2023/07/27 10:06:23;;;;;;;;;;;;;;;25.47;31.84;98872.88;5052565;28;20369;-76
2023/07/27 10:08:49;;;;;;;;;;;;;;;25.50;31.32;98904.72;5047435;28;19927;-78
2023/07/27 10:11:14;;;;;;;;;;;;;;;25.25;31.75;98906.63;5049141;28;19951;-77
2023/07/27 10:13:41;;;;;;;;;;;;;;;25.05;31.91;98936.59;5023168;28;20321;-77
2023/07/27 10:16:10;;;;;;;;;;;;;;;24.90;32.22;98925.94;5044908;28;19996;-76
2023/07/27 10:18:43;;;;;;;;;;;;;;;24.83;33.12;98917.38;5051812;28;19913;-78
2023/07/27 10:21:20;;;;;;;;;;;;;;;24.68;35.80;98905.66;5052276;28;19919;-79
2023/07/27 10:23:53;;;;;;;;;;;;;;;24.45;36.86;98910.97;5033375;28;19919;-75
2023/07/27 10:26:19;;;;;;;;;;;;;;;24.11;38.60;98917.16;5049757;28;19912;-76
2023/07/27 10:28:47;;;;;;;;;;;;;;;23.94;39.46;98916.75;5051103;28;19979;-77
2023/07/27 10:31:25;;;;;;;;;;;;;;;23.79;41.33;98936.53;5043081;28;19913;-77
2023/07/27 10:34:03;;;;;;;;;;;;;;;23.49;42.94;98947.44;5040494;28;19978;-76
2023/07/27 10:36:48;;;;;;;;;;;;;;;23.32;42.44;98945.88;5051663;28;19999;-78
2023/07/27 10:39:15;;;;;;;;;;;;;;;23.34;42.62;98919.47;5039386;28;19970;-77
2023/07/27 10:41:56;;;;;;;;;;;;;;;23.30;41.37;98902.25;5048154;28;20503;-77
2023/07/27 10:44:21;;;;;;;;;;;;;;;23.18;42.28;98837.13;5047178;28;20023;-76
2023/07/27 10:46:47;;;;;;;;;;;;;;;23.18;41.52;98769.00;5051470;28;19951;-77
2023/07/27 10:49:15;;;;;;;;;;;;;;;23.20;43.03;98767.63;5032680;28;20428;-76
2023/07/27 10:51:40;;;;;;;;;;;;;;;23.13;42.04;98811.03;5049660;28;19931;-76
2023/07/27 10:54:06;;;;;;;;;;;;;;;23.04;43.94;98839.63;5030976;28;20377;-77
2023/07/27 10:56:31;;;;;;;;;;;;;;;23.12;42.63;98860.59;5051348;28;19912;-78
2023/07/27 10:59:00;;;;;;;;;;;;;;;23.36;43.94;98868.00;5050733;28;19920;-77
2023/07/27 11:01:29;;;;;;;;;;;;;;;23.52;43.71;98874.13;5050232;28;19919;-78
2023/07/27 11:03:57;;;;;;;;;;;;;;;23.82;42.46;98882.06;5050179;28;19991;-77
2023/07/27 11:06:24;;;;;;;;;;;;;;;24.11;41.67;98865.13;5040377;28;19913;-78
2023/07/27 11:08:49;;;;;;;;;;;;;;;24.74;40.70;98860.50;5049584;28;20374;-77
2023/07/27 11:11:18;;;;;;;;;;;;;;;25.36;41.07;98860.59;5051322;28;19920;-77
2023/07/27 11:13:44;;;;;;;;;;;;;;;26.02;38.72;98846.94;5051474;28;19917;-77
2023/07/27 11:16:09;;;;;;;;;;;;;;;26.57;38.95;98850.56;5050158;28;20403;-76
2023/07/27 11:18:34;;;;;;;;;;;;;;;27.18;37.74;98840.47;5051481;28;19954;-77
2023/07/27 11:21:01;;;;;;;;;;;;;;;27.78;36.46;98830.19;5046158;28;20254;-77
2023/07/27 11:23:27;;;;;;;;;;;;;;;28.20;35.38;98828.03;5040775;28;19924;-78
2023/07/27 11:25:52;;;;;;;;;;;;;;;28.73;34.12;98835.38;5027216;28;19913;-77
2023/07/27 11:28:18;;;;;;;;;;;;;;;29.03;32.49;98829.09;5048184;28;20388;-77
2023/07/27 11:30:43;;;;;;;;;;;;;;;29.36;30.96;98831.38;5049726;28;20420;-76
2023/07/27 11:33:09;;;;;;;;;;;;;;;29.87;32.48;98829.81;5051476;28;19940;-77
2023/07/27 11:35:43;;;;;;;;;;;;;;;30.41;31.38;98828.28;5051340;28;19912;-77
2023/07/27 11:38:09;;;;;;;;;;;;;;;30.82;30.49;98813.25;5051082;28;19913;-76
2023/07/27 11:40:34;;;;;;;;;;;;;;;31.27;30.50;98813.47;5051210;28;20363;-75
2023/07/27 11:43:03;;;;;;;;;;;;;;;31.64;29.83;98809.00;5051157;28;19912;-76
2023/07/27 11:45:30;;;;;;;;;;;;;;;31.64;26.20;98802.75;5050857;28;19920;-77
2023/07/27 11:47:55;;;;;;;;;;;;;;;31.70;27.11;98804.16;5051519;28;19916;-76
2023/07/27 11:50:20;;;;;;;;;;;;;;;31.69;23.78;98800.59;5050577;28;20320;-77
2023/07/27 11:52:48;;;;;;;;;;;;;;;31.63;26.44;98803.88;5045883;28;19909;-76
2023/07/27 11:55:14;;;;;;;;;;;;;;;31.78;24.25;98801.34;5031588;28;20479;-77
2023/07/27 11:57:39;;;;;;;;;;;;;;;31.91;24.67;98799.44;5030524;28;19937;-77
2023/07/27 12:00:12;;;;;;;;;;;;;;;31.98;24.25;98801.66;5029913;28;20366;-75
2023/07/27 12:02:38;;;;;;;;;;;;;;;32.32;24.45;98800.50;5034793;28;20455;-77
2023/07/27 12:05:03;;;;;;;;;;;;;;;32.82;24.72;98798.28;5033403;28;20630;-75
2023/07/27 12:07:33;;;;;;;;;;;;;;;33.01;25.99;98796.91;5033792;28;19912;-77
2023/07/27 12:09:58;;;;;;;;;;;;;;;32.98;24.95;98787.44;5034864;28;19909;-76
2023/07/27 12:12:24;;;;;;;;;;;;;;;33.23;24.96;98784.66;5034909;28;19915;-77
2023/07/27 12:14:54;;;;;;;;;;;;;;;33.55;24.18;98783.69;5034544;28;19967;-76
2023/07/27 12:17:22;;;;;;;;;;;;;;;33.62;24.90;98777.59;5033431;28;19909;-76
2023/07/27 12:19:48;;;;;;;;;;;;;;;33.71;25.24;98786.47;5034692;28;19909;-76
2023/07/27 12:22:13;;;;;;;;;;;;;;;33.24;24.98;98800.72;5034600;28;20317;-76
2023/07/27 12:24:42;;;;;;;;;;;;;;;33.30;24.82;98784.88;5046507;28;19909;-76
2023/07/27 12:27:08;;;;;;;;;;;;;;;33.61;25.08;98790.50;5058550;28;19944;-76
2023/07/27 12:29:34;;;;;;;;;;;;;;;33.87;22.94;98779.09;5060148;28;19939;-77
2023/07/27 12:31:59;;;;;;;;;;;;;;;33.79;22.53;98789.03;5054572;28;20003;-77
2023/07/27 12:34:25;;;;;;;;;;;;;;;33.72;22.88;98794.31;5054049;28;19913;-77
2023/07/27 12:36:50;;;;;;;;;;;;;;;33.89;21.97;98785.03;5030781;28;19913;-76
2023/07/27 12:39:15;;;;;;;;;;;;;;;34.03;22.23;98796.34;5020511;28;19913;-77
2023/07/27 12:41:41;;;;;;;;;;;;;;;33.99;18.29;98784.50;5035899;28;19973;-76
2023/07/27 12:44:06;;;;;;;;;;;;;;;34.06;17.99;98787.44;5053874;28;19912;-76